Time;durP1;ratioP1;P1;durP2;ratioP2;P2;SDS_P1;SDS_P2;PMS_P1;PMS_P2;Temp;Humidity;BMP_temperature;BMP_pressure;BME280_temperature;BME280_humidity;BME280_pressure;Samples;Min_cycle;Max_cycle;Signal;HPM_P1;HPM_P2
2023/05/24 04:02:07;;;;;;;3.67;2.00;;;14.80;71.50;;;;;;5387707;22;20858;-76
2023/05/24 04:04:33;;;;;;;4.53;2.47;;;14.90;70.80;;;;;;5035610;28;20443;-76
2023/05/24 04:07:00;;;;;;;2.77;2.20;;;15.00;71.00;;;;;;5035526;28;20443;-77
2023/05/24 04:09:27;;;;;;;3.83;1.97;;;15.00;71.00;;;;;;5035469;28;20454;-76
2023/05/24 04:11:53;;;;;;;2.93;2.40;;;15.00;70.70;;;;;;5035452;28;20529;-76
2023/05/24 04:14:20;;;;;;;3.97;2.70;;;15.00;70.90;;;;;;5035329;28;20447;-77
2023/05/24 04:16:47;;;;;;;3.80;2.17;;;15.00;71.00;;;;;;5036006;28;20451;-76
2023/05/24 04:19:15;;;;;;;3.10;2.13;;;15.00;70.70;;;;;;5035219;28;20573;-76
2023/05/24 04:21:42;;;;;;;4.90;2.20;;;14.80;70.80;;;;;;5034908;28;20810;-76
2023/05/24 04:24:08;;;;;;;4.70;2.43;;;14.90;70.70;;;;;;5035168;28;20451;-76
2023/05/24 04:26:36;;;;;;;3.40;2.27;;;15.00;70.80;;;;;;5035145;28;20451;-76
2023/05/24 04:29:03;;;;;;;5.07;2.93;;;14.90;70.70;;;;;;5035061;28;20540;-76
2023/05/24 04:31:32;;;;;;;3.57;2.40;;;14.90;70.60;;;;;;5035033;28;20507;-76
2023/05/24 04:33:58;;;;;;;3.50;2.07;;;14.70;71.10;;;;;;5035277;28;20486;-76
2023/05/24 04:36:27;;;;;;;4.50;2.80;;;14.80;71.10;;;;;;5034971;28;20826;-76
2023/05/24 04:38:55;;;;;;;4.03;2.43;;;14.90;70.90;;;;;;5034804;28;20483;-76
2023/05/24 04:41:23;;;;;;;4.10;2.57;;;14.80;71.00;;;;;;5035009;28;20480;-76
2023/05/24 04:43:49;;;;;;;3.50;2.70;;;15.00;70.80;;;;;;5035651;28;20455;-75
2023/05/24 04:46:16;;;;;;;3.33;2.67;;;15.00;70.60;;;;;;5034765;28;20494;-76
2023/05/24 04:48:43;;;;;;;3.27;2.10;;;15.10;70.70;;;;;;5034650;28;20439;-76
2023/05/24 04:51:10;;;;;;;5.60;3.53;;;15.10;70.40;;;;;;5034383;28;21055;-76
2023/05/24 04:53:38;;;;;;;2.50;1.80;;;15.00;70.70;;;;;;5034608;28;20819;-76
2023/05/24 04:56:05;;;;;;;4.80;2.20;;;15.10;70.80;;;;;;5034520;28;20872;-76
2023/05/24 04:58:32;;;;;;;3.30;2.50;;;15.10;70.40;;;;;;5034159;28;20837;-76
2023/05/24 05:00:58;;;;;;;4.63;2.73;;;15.00;70.50;;;;;;5034223;28;20853;-77
2023/05/24 05:03:25;;;;;;;7.47;2.83;;;14.90;70.70;;;;;;5034493;28;20432;-76
2023/05/24 05:05:52;;;;;;;4.67;2.40;;;15.00;71.00;;;;;;5033481;28;20456;-76
2023/05/24 05:08:19;;;;;;;2.80;2.10;;;15.10;70.40;;;;;;5034370;28;20451;-76
2023/05/24 05:10:47;;;;;;;3.50;2.03;;;15.20;70.40;;;;;;5033920;28;20907;-76
2023/05/24 05:13:13;;;;;;;4.60;2.50;;;15.20;70.50;;;;;;5034282;28;20447;-76
2023/05/24 05:15:40;;;;;;;4.07;2.10;;;15.10;70.50;;;;;;5034303;28;20451;-76
2023/05/24 05:18:07;;;;;;;3.27;2.00;;;15.00;70.70;;;;;;5034046;28;20521;-76
2023/05/24 05:20:34;;;;;;;4.60;2.33;;;15.00;70.70;;;;;;5034125;28;20550;-76
2023/05/24 05:23:01;;;;;;;3.60;2.37;;;15.00;70.40;;;;;;5033634;28;20451;-76
2023/05/24 05:25:29;;;;;;;4.03;2.60;;;15.00;70.30;;;;;;5033775;28;20848;-76
2023/05/24 05:27:57;;;;;;;3.90;2.63;;;14.90;70.30;;;;;;5034060;28;20825;-76
2023/05/24 05:30:24;;;;;;;4.00;2.30;;;14.90;71.00;;;;;;5033549;28;20948;-76
2023/05/24 05:32:51;;;;;;;3.60;3.00;;;14.80;71.20;;;;;;5033609;28;20743;-76
2023/05/24 05:35:17;;;;;;;4.33;2.60;;;14.80;71.40;;;;;;5033579;28;20531;-76
2023/05/24 05:37:44;;;;;;;5.17;2.60;;;14.80;71.10;;;;;;5033829;28;20443;-76
2023/05/24 05:40:12;;;;;;;4.20;2.17;;;14.80;71.00;;;;;;5033689;28;20581;-76
2023/05/24 05:42:39;;;;;;;5.47;3.40;;;14.70;71.10;;;;;;5033697;28;20471;-76
2023/05/24 05:45:08;;;;;;;4.70;2.80;;;14.80;71.20;;;;;;5033715;28;20454;-76
2023/05/24 05:47:35;;;;;;;4.97;2.43;;;14.90;70.90;;;;;;5033710;28;20518;-76
2023/05/24 05:50:01;;;;;;;4.30;2.83;;;14.90;70.60;;;;;;5033663;28;20456;-76
2023/05/24 05:52:28;;;;;;;4.57;2.60;;;14.90;70.80;;;;;;5033538;28;20496;-75
2023/05/24 05:54:55;;;;;;;3.87;2.40;;;14.90;70.80;;;;;;5033540;28;20444;-76
2023/05/24 05:57:23;;;;;;;3.87;2.40;;;14.80;71.30;;;;;;5033356;28;20479;-74
2023/05/24 05:59:49;;;;;;;2.67;2.40;;;14.80;71.90;;;;;;5033308;28;20479;-76
2023/05/24 06:02:18;;;;;;;4.27;2.50;;;14.80;72.20;;;;;;5033006;28;20479;-75
2023/05/24 06:04:45;;;;;;;3.37;1.90;;;14.80;71.50;;;;;;5033632;28;20483;-77
2023/05/24 06:07:12;;;;;;;5.10;2.53;;;15.00;71.60;;;;;;5033231;28;20452;-76
2023/05/24 06:09:38;;;;;;;3.67;2.20;;;15.00;70.90;;;;;;5033292;28;20447;-76
2023/05/24 06:12:05;;;;;;;3.83;2.80;;;15.10;71.00;;;;;;5033198;28;20883;-77
2023/05/24 06:14:33;;;;;;;4.80;2.27;;;15.00;70.00;;;;;;5033255;28;20453;-77
2023/05/24 06:17:00;;;;;;;3.83;2.20;;;14.80;70.90;;;;;;5033017;28;20451;-77
2023/05/24 06:19:28;;;;;;;4.73;2.43;;;14.80;70.70;;;;;;5033180;28;20478;-77
2023/05/24 06:21:56;;;;;;;3.67;2.40;;;14.90;71.20;;;;;;5033188;28;20463;-77
2023/05/24 06:24:23;;;;;;;4.43;2.43;;;14.90;70.20;;;;;;5033155;28;20463;-77
2023/05/24 06:26:50;;;;;;;4.17;2.93;;;14.70;70.10;;;;;;5033083;28;20937;-77
2023/05/24 06:29:19;;;;;;;4.57;2.50;;;14.40;70.90;;;;;;5033067;28;20451;-77
2023/05/24 06:31:46;;;;;;;6.30;3.33;;;14.30;71.40;;;;;;5032973;28;20537;-77
2023/05/24 06:34:15;;;;;;;4.13;2.57;;;14.30;71.50;;;;;;5033071;28;20481;-77
2023/05/24 06:36:46;;;;;;;7.83;2.20;;;14.50;71.40;;;;;;5033239;28;20444;-78
2023/05/24 06:39:12;;;;;;;4.97;2.83;;;14.50;70.90;;;;;;5033020;28;20554;-77
2023/05/24 06:41:39;;;;;;;4.17;2.97;;;14.10;72.00;;;;;;5032937;28;20467;-77
2023/05/24 06:44:06;;;;;;;3.00;2.33;;;14.30;72.00;;;;;;5032973;28;20451;-77
2023/05/24 06:46:33;;;;;;;3.40;2.57;;;14.50;71.60;;;;;;5032942;28;20448;-77
2023/05/24 06:48:59;;;;;;;4.77;2.50;;;14.80;70.90;;;;;;5032860;28;20455;-77
2023/05/24 06:51:26;;;;;;;4.30;2.37;;;15.00;70.50;;;;;;5032735;28;20472;-77
2023/05/24 06:53:54;;;;;;;5.60;2.33;;;15.20;70.20;;;;;;5032541;28;20451;-77
2023/05/24 06:56:22;;;;;;;6.50;2.90;;;15.20;69.60;;;;;;5032558;28;20452;-77
2023/05/24 06:58:48;;;;;;;4.90;2.33;;;15.10;69.10;;;;;;5032721;28;20932;-76
2023/05/24 07:01:15;;;;;;;4.80;2.83;;;15.10;69.50;;;;;;5032621;28;20499;-77
2023/05/24 07:03:42;;;;;;;3.87;2.77;;;15.20;69.40;;;;;;5032769;28;20459;-77
2023/05/24 07:06:12;;;;;;;5.20;2.77;;;15.20;69.30;;;;;;5033668;28;20443;-76
2023/05/24 07:08:39;;;;;;;3.90;2.70;;;15.20;69.50;;;;;;5032919;28;20432;-77
2023/05/24 07:11:08;;;;;;;4.60;2.40;;;15.20;69.60;;;;;;5032694;28;20478;-77
2023/05/24 07:13:34;;;;;;;4.10;2.40;;;15.20;69.50;;;;;;5032686;28;20447;-77
2023/05/24 07:16:01;;;;;;;6.10;3.07;;;15.10;70.00;;;;;;5032656;28;20447;-77
2023/05/24 07:18:28;;;;;;;5.90;2.30;;;15.20;69.30;;;;;;5034169;28;20875;-77
2023/05/24 07:20:54;;;;;;;3.53;2.70;;;15.30;69.20;;;;;;5032885;28;20991;-77
2023/05/24 07:23:21;;;;;;;3.17;2.60;;;15.40;69.90;;;;;;5033144;28;20451;-77
2023/05/24 07:25:48;;;;;;;4.50;2.27;;;15.40;69.50;;;;;;5032620;28;20948;-76
2023/05/24 07:28:18;;;;;;;4.10;2.80;;;15.40;69.20;;;;;;5033402;28;20822;-77
2023/05/24 07:30:45;;;;;;;5.50;2.60;;;15.40;69.10;;;;;;5036117;28;21072;-77
2023/05/24 07:33:12;;;;;;;3.40;2.23;;;15.10;69.40;;;;;;5036381;28;20478;-78
2023/05/24 07:35:39;;;;;;;4.70;2.60;;;15.10;69.80;;;;;;5036630;28;20450;-78
2023/05/24 07:38:05;;;;;;;4.13;2.43;;;15.00;70.30;;;;;;5036064;28;20439;-77
2023/05/24 07:40:32;;;;;;;4.80;2.57;;;14.90;70.50;;;;;;5035520;28;21075;-77
2023/05/24 07:42:59;;;;;;;5.17;2.67;;;15.00;70.00;;;;;;5035961;28;20871;-77
2023/05/24 07:45:27;;;;;;;3.90;2.70;;;15.00;70.00;;;;;;5036014;28;20843;-77
2023/05/24 07:47:53;;;;;;;5.00;2.73;;;14.90;70.50;;;;;;5036609;28;20956;-77
2023/05/24 07:50:20;;;;;;;4.10;3.07;;;14.70;70.60;;;;;;5036592;28;20940;-77
2023/05/24 07:52:47;;;;;;;4.90;2.87;;;14.80;70.40;;;;;;5036022;28;20482;-77
2023/05/24 07:55:13;;;;;;;4.57;2.40;;;14.50;71.60;;;;;;5035837;28;20497;-77
2023/05/24 07:57:40;;;;;;;3.70;2.43;;;14.60;71.40;;;;;;5035957;28;20451;-77
2023/05/24 08:00:13;;;;;;;3.63;2.50;;;14.70;70.90;;;;;;5036255;28;20552;-77
2023/05/24 08:02:41;;;;;;;4.77;2.60;;;14.90;70.00;;;;;;5035488;28;20486;-77
2023/05/24 08:05:09;;;;;;;4.80;2.50;;;15.00;70.10;;;;;;5036046;28;20451;-77
2023/05/24 08:07:36;;;;;;;4.93;2.80;;;15.20;70.30;;;;;;5035812;28;20956;-77
2023/05/24 08:10:02;;;;;;;3.67;2.47;;;15.00;70.00;;;;;;5035582;28;20446;-78
2023/05/24 08:12:30;;;;;;;3.20;2.57;;;15.00;70.00;;;;;;5035267;28;20984;-77
2023/05/24 08:14:56;;;;;;;3.57;2.70;;;15.20;70.60;;;;;;5035549;28;20475;-77
2023/05/24 08:17:23;;;;;;;4.10;2.57;;;15.30;69.10;;;;;;5035440;28;20454;-77
2023/05/24 08:19:51;;;;;;;4.87;2.87;;;15.40;69.30;;;;;;5034959;28;21018;-77
2023/05/24 08:22:18;;;;;;;6.40;3.13;;;15.40;69.10;;;;;;5035328;28;21050;-77
2023/05/24 08:24:45;;;;;;;3.00;2.47;;;15.40;69.30;;;;;;5035509;28;20498;-77
2023/05/24 08:27:12;;;;;;;5.00;2.90;;;15.20;69.30;;;;;;5035127;28;20451;-77
2023/05/24 08:29:39;;;;;;;4.90;3.20;;;15.40;69.20;;;;;;5035160;28;20443;-77
2023/05/24 08:32:08;;;;;;;5.43;2.50;;;15.50;68.30;;;;;;5035267;28;20529;-77
2023/05/24 08:34:36;;;;;;;3.50;2.50;;;15.70;67.90;;;;;;5035157;28;20490;-77
2023/05/24 08:37:05;;;;;;;4.40;2.10;;;15.80;68.10;;;;;;5035291;28;20447;-77
2023/05/24 08:39:32;;;;;;;3.53;2.40;;;15.70;68.40;;;;;;5034972;28;20579;-78
2023/05/24 08:41:59;;;;;;;4.87;2.50;;;15.80;67.10;;;;;;5035049;28;20832;-76
2023/05/24 08:44:28;;;;;;;4.57;2.27;;;15.80;67.00;;;;;;5035113;28;20458;-77
2023/05/24 08:46:58;;;;;;;3.57;2.57;;;15.70;67.90;;;;;;5035284;28;20458;-77
2023/05/24 08:49:25;;;;;;;5.20;2.63;;;15.60;68.40;;;;;;5035422;28;20439;-77
2023/05/24 08:51:52;;;;;;;4.13;2.97;;;15.50;68.80;;;;;;5034783;28;20476;-77
2023/05/24 08:54:22;;;;;;;3.70;2.80;;;15.60;68.40;;;;;;5034748;28;20501;-77
2023/05/24 08:56:49;;;;;;;4.27;2.47;;;15.80;68.30;;;;;;5034733;28;20443;-77
2023/05/24 08:59:16;;;;;;;3.63;2.60;;;15.70;67.80;;;;;;5034459;28;20913;-77
2023/05/24 09:01:45;;;;;;;4.50;2.60;;;15.50;68.50;;;;;;5034380;28;20479;-78
2023/05/24 09:04:12;;;;;;;4.20;2.93;;;15.30;69.10;;;;;;5034276;28;20933;-77
2023/05/24 09:06:40;;;;;;;5.30;2.63;;;15.20;69.80;;;;;;5034458;28;20447;-78
2023/05/24 09:09:09;;;;;;;3.43;2.37;;;15.10;70.10;;;;;;5034365;28;20451;-77
2023/05/24 09:11:39;;;;;;;4.67;3.30;;;15.30;69.60;;;;;;5034256;28;20478;-77
2023/05/24 09:14:06;;;;;;;2.67;2.40;;;15.50;69.50;;;;;;5034555;28;20456;-78
2023/05/24 09:16:33;;;;;;;4.70;2.70;;;15.60;69.10;;;;;;5034395;28;20443;-77
2023/05/24 09:19:00;;;;;;;3.50;2.90;;;15.60;67.90;;;;;;5034333;28;20455;-77
2023/05/24 09:21:28;;;;;;;4.00;3.60;;;15.80;67.80;;;;;;5034651;28;20483;-77
2023/05/24 09:23:55;;;;;;;4.30;3.27;;;15.80;67.60;;;;;;5034398;28;20455;-77
2023/05/24 09:26:23;;;;;;;3.00;2.70;;;15.70;67.70;;;;;;5034359;28;20857;-77
2023/05/24 09:28:54;;;;;;;4.43;3.00;;;16.00;67.40;;;;;;5034205;28;20479;-77
2023/05/24 09:31:32;;;;;;;5.03;3.07;;;16.00;66.90;;;;;;5034236;28;20525;-77
2023/05/24 09:33:59;;;;;;;6.53;3.27;;;15.60;67.50;;;;;;5033972;28;20964;-77
2023/05/24 09:36:28;;;;;;;3.20;2.90;;;15.50;67.20;;;;;;5034194;28;20452;-77
2023/05/24 09:39:08;;;;;;;4.27;2.63;;;15.70;67.90;;;;;;5034312;28;20447;-77
2023/05/24 09:41:35;;;;;;;5.60;2.50;;;16.00;67.40;;;;;;5033643;28;20514;-77
2023/05/24 09:44:03;;;;;;;4.60;3.30;;;16.10;66.90;;;;;;5033766;28;20501;-77
2023/05/24 09:46:37;;;;;;;3.27;2.50;;;16.20;66.20;;;;;;5033611;28;20451;-78
2023/05/24 09:49:05;;;;;;;5.27;3.10;;;15.90;67.30;;;;;;5033337;28;20431;-77
2023/05/24 09:51:33;;;;;;;6.43;3.00;;;15.90;66.20;;;;;;5032702;28;20980;-77
2023/05/24 09:54:01;;;;;;;4.13;3.07;;;16.00;66.60;;;;;;5033475;28;20455;-77
2023/05/24 09:56:29;;;;;;;4.70;3.20;;;15.90;67.00;;;;;;5033510;28;20533;-77
2023/05/24 09:58:56;;;;;;;3.30;2.53;;;15.70;67.40;;;;;;5033230;28;20843;-77
2023/05/24 10:01:25;;;;;;;3.63;2.63;;;15.70;67.80;;;;;;5033206;28;21051;-78
2023/05/24 10:03:52;;;;;;;4.33;2.70;;;15.80;67.80;;;;;;5033736;28;20483;-77
2023/05/24 10:06:20;;;;;;;4.00;2.97;;;15.80;68.00;;;;;;5033396;28;20459;-77
2023/05/24 10:08:48;;;;;;;4.00;2.57;;;15.90;68.20;;;;;;5033354;28;20501;-77
2023/05/24 10:11:14;;;;;;;4.80;2.67;;;15.80;67.30;;;;;;5033244;28;20918;-78
2023/05/24 10:13:41;;;;;;;4.33;2.97;;;15.90;67.10;;;;;;5033273;28;20502;-77
2023/05/24 10:16:08;;;;;;;3.70;2.60;;;15.70;67.50;;;;;;5041451;23;20507;-77
2023/05/24 10:18:38;;;;;;;4.37;2.83;;;15.70;69.00;;;;;;5033201;28;20805;-77
2023/05/24 10:21:08;;;;;;;4.20;2.73;;;15.80;67.00;;;;;;5033125;28;20537;-77
2023/05/24 10:23:38;;;;;;;2.83;2.27;;;15.80;66.60;;;;;;5033139;28;20454;-77
2023/05/24 10:26:07;;;;;;;5.47;2.80;;;15.80;66.60;;;;;;5033310;28;20471;-77
2023/05/24 10:28:36;;;;;;;3.70;2.93;;;15.40;67.40;;;;;;5032883;28;20837;-77
2023/05/24 10:31:09;;;;;;;3.83;2.57;;;15.50;67.50;;;;;;5033147;28;20448;-77
2023/05/24 10:33:38;;;;;;;5.53;2.80;;;15.50;67.80;;;;;;5033251;28;20479;-77
2023/05/24 10:36:07;;;;;;;3.83;2.60;;;15.60;67.40;;;;;;5033035;28;20471;-77
2023/05/24 10:38:34;;;;;;;3.90;2.60;;;15.60;67.00;;;;;;5032835;28;20941;-76
2023/05/24 10:41:02;;;;;;;4.30;2.63;;;15.60;67.00;;;;;;5032642;28;21076;-77
2023/05/24 10:43:29;;;;;;;4.13;2.67;;;15.40;67.90;;;;;;5032981;28;20554;-76
2023/05/24 10:45:56;;;;;;;3.73;2.63;;;15.40;67.90;;;;;;5032858;28;20526;-77
2023/05/24 10:48:37;;;;;;;4.20;3.10;;;15.50;67.70;;;;;;5032982;28;20527;-77
2023/05/24 10:51:37;;;;;;;3.40;2.37;;;15.50;67.60;;;;;;5033433;28;20447;-76
2023/05/24 10:54:15;;;;;;;3.93;2.33;;;15.50;67.50;;;;;;5032854;28;20431;-77
2023/05/24 10:56:42;;;;;;;4.10;2.50;;;15.60;67.00;;;;;;5032804;28;20558;-77
2023/05/24 10:59:09;;;;;;;5.50;2.67;;;15.60;66.60;;;;;;5032817;28;20451;-77
2023/05/24 11:01:36;;;;;;;6.67;2.77;;;15.40;66.50;;;;;;5032645;28;20529;-78
2023/05/24 11:04:09;;;;;;;3.47;2.60;;;15.20;66.50;;;;;;5034771;28;20594;-77
2023/05/24 11:06:49;;;;;;;4.87;2.80;;;15.10;67.90;;;;;;5036323;28;21010;-77
2023/05/24 11:09:18;;;;;;;6.33;2.80;;;15.20;67.10;;;;;;5036187;28;20917;-77
2023/05/24 11:11:47;;;;;;;4.70;3.07;;;15.20;66.20;;;;;;5036405;28;20452;-77
2023/05/24 11:14:17;;;;;;;6.03;2.97;;;15.30;66.70;;;;;;5036410;28;20459;-78
2023/05/24 11:16:46;;;;;;;4.10;2.70;;;15.50;65.60;;;;;;5036196;28;20526;-76
2023/05/24 11:19:18;;;;;;;4.90;2.90;;;15.40;64.60;;;;;;5036489;28;20812;-76
2023/05/24 11:21:46;;;;;;;5.10;3.50;;;15.60;65.80;;;;;;5035941;28;20888;-76
2023/05/24 11:24:13;;;;;;;3.40;2.50;;;15.60;65.40;;;;;;5036301;28;20497;-77
2023/05/24 11:26:40;;;;;;;3.67;2.83;;;15.60;66.30;;;;;;5036108;28;20467;-77
2023/05/24 11:29:07;;;;;;;4.10;2.70;;;15.60;65.10;;;;;;5036255;28;20443;-76
2023/05/24 11:31:38;;;;;;;5.00;3.03;;;15.70;65.30;;;;;;5036121;28;20439;-77
2023/05/24 11:34:06;;;;;;;3.60;2.57;;;15.70;64.00;;;;;;5035844;28;20936;-77
2023/05/24 11:36:35;;;;;;;5.33;3.03;;;16.00;64.20;;;;;;5035895;28;20475;-77
2023/05/24 11:39:05;;;;;;;5.90;3.00;;;16.00;63.60;;;;;;5035857;28;20940;-76
2023/05/24 11:41:36;;;;;;;3.80;2.67;;;15.90;63.70;;;;;;5036066;28;20467;-77
2023/05/24 11:44:03;;;;;;;4.30;2.90;;;16.20;63.00;;;;;;5035964;28;20475;-77
2023/05/24 11:46:30;;;;;;;3.93;2.90;;;16.40;63.10;;;;;;5035763;28;20533;-77
2023/05/24 11:48:58;;;;;;;3.53;2.87;;;16.60;62.20;;;;;;5035890;28;20560;-77
2023/05/24 11:51:29;;;;;;;3.50;2.03;;;16.80;62.10;;;;;;5035745;28;20443;-77
2023/05/24 11:53:58;;;;;;;4.40;2.50;;;16.90;61.80;;;;;;5035852;28;20477;-76
2023/05/24 11:56:26;;;;;;;3.20;2.37;;;16.90;60.30;;;;;;5035318;28;20992;-77
2023/05/24 11:59:02;;;;;;;4.67;3.33;;;16.60;60.50;;;;;;5035590;28;20535;-77
2023/05/24 12:01:29;;;;;;;3.90;2.40;;;16.70;62.10;;;;;;5035559;28;20463;-78
2023/05/24 12:03:56;;;;;;;3.07;2.27;;;17.00;61.30;;;;;;5035633;28;20505;-77
2023/05/24 12:06:23;;;;;;;5.67;3.00;;;17.30;59.70;;;;;;5035634;28;20467;-77
2023/05/24 12:08:50;;;;;;;4.17;2.40;;;17.70;59.10;;;;;;5037011;28;20851;-77
2023/05/24 12:11:18;;;;;;;4.40;2.80;;;17.80;60.30;;;;;;5037144;28;20456;-78
2023/05/24 12:13:44;;;;;;;4.50;3.00;;;18.10;58.50;;;;;;5039316;28;20451;-77
2023/05/24 12:16:13;;;;;;;5.07;2.60;;;18.40;58.10;;;;;;5038537;28;20479;-78
2023/05/24 12:18:40;;;;;;;4.37;2.90;;;18.80;56.80;;;;;;5037115;28;20447;-78
2023/05/24 12:21:11;;;;;;;4.07;2.40;;;18.70;55.40;;;;;;5040274;28;20479;-79
2023/05/24 12:23:38;;;;;;;3.70;2.63;;;18.60;57.50;;;;;;5036328;28;20494;-78
2023/05/24 12:26:05;;;;;;;3.90;3.00;;;18.90;56.00;;;;;;5035367;28;20968;-78
2023/05/24 12:28:37;;;;;;;3.03;2.53;;;19.10;56.50;;;;;;5035316;28;20440;-79
2023/05/24 12:31:05;;;;;;;3.53;2.60;;;19.10;55.80;;;;;;5035307;28;20444;-78
2023/05/24 12:33:32;;;;;;;3.53;2.37;;;18.90;55.70;;;;;;5035227;28;20495;-78
2023/05/24 12:35:59;;;;;;;3.13;2.30;;;19.20;55.50;;;;;;5034951;28;20467;-78
2023/05/24 12:38:26;;;;;;;3.70;2.00;;;19.00;51.20;;;;;;5035041;28;20494;-78
2023/05/24 12:40:54;;;;;;;4.77;2.30;;;19.00;51.30;;;;;;5034545;28;20996;-79
2023/05/24 12:43:21;;;;;;;6.23;2.53;;;19.10;53.10;;;;;;5034868;28;20483;-78
2023/05/24 12:45:49;;;;;;;2.80;2.27;;;18.90;52.80;;;;;;5034765;28;20516;-78
2023/05/24 12:48:16;;;;;;;3.37;2.00;;;19.00;50.50;;;;;;5034920;28;20448;-79
2023/05/24 12:50:42;;;;;;;2.60;1.87;;;18.90;50.60;;;;;;5035012;28;20527;-78
2023/05/24 12:53:09;;;;;;;3.57;2.53;;;18.30;51.30;;;;;;5034905;28;20452;-79
2023/05/24 12:55:36;;;;;;;3.00;1.77;;;18.30;51.80;;;;;;5034335;28;20795;-79
2023/05/24 12:58:05;;;;;;;4.23;3.30;;;18.10;54.20;;;;;;5034603;28;20527;-79
2023/05/24 13:00:31;;;;;;;4.10;2.00;;;18.50;53.30;;;;;;5034190;28;20912;-78
2023/05/24 13:02:59;;;;;;;3.13;2.13;;;18.60;53.50;;;;;;5035100;28;20444;-79
2023/05/24 13:05:27;;;;;;;3.90;2.70;;;19.00;52.60;;;;;;5034694;28;20456;-78
2023/05/24 13:07:56;;;;;;;3.37;2.17;;;19.50;53.10;;;;;;5034554;28;20443;-78
2023/05/24 13:10:22;;;;;;;3.83;2.80;;;19.70;49.60;;;;;;5034552;28;20443;-79
2023/05/24 13:16:11;;;;;;;6.20;2.50;;;19.50;50.70;;;;;;5037156;28;20482;-80
2023/05/24 13:18:39;;;;;;;4.10;2.30;;;18.90;50.70;;;;;;5040269;28;20506;-81
2023/05/24 13:21:07;;;;;;;3.77;2.30;;;19.20;53.30;;;;;;5039214;28;20533;-81
2023/05/24 13:23:35;;;;;;;4.10;2.20;;;19.40;51.10;;;;;;5036326;28;20867;-78
2023/05/24 13:26:01;;;;;;;3.73;2.00;;;19.50;47.70;;;;;;5033297;28;20550;-78
2023/05/24 13:28:30;;;;;;;3.20;2.00;;;19.70;51.30;;;;;;5034365;28;20454;-77
2023/05/24 13:30:56;;;;;;;4.90;2.43;;;19.60;49.30;;;;;;5034131;28;20447;-79
2023/05/24 13:33:23;;;;;;;3.73;2.00;;;19.40;51.30;;;;;;5034733;28;20452;-79
2023/05/24 13:35:51;;;;;;;3.20;2.13;;;19.00;51.50;;;;;;5034190;28;20475;-79
2023/05/24 13:38:18;;;;;;;3.10;2.50;;;18.90;51.70;;;;;;5034124;28;20868;-79
2023/05/24 13:40:44;;;;;;;4.63;2.30;;;19.10;50.80;;;;;;5034011;28;20787;-78
2023/05/24 13:43:11;;;;;;;4.03;2.00;;;19.50;50.60;;;;;;5034221;28;20455;-79
2023/05/24 13:45:38;;;;;;;2.90;1.93;;;19.30;50.30;;;;;;5034148;28;20537;-81
2023/05/24 13:48:04;;;;;;;4.10;2.10;;;18.80;50.40;;;;;;5034427;28;20805;-78
2023/05/24 13:50:32;;;;;;;2.57;1.70;;;18.80;49.30;;;;;;5034020;28;20940;-79
2023/05/24 13:53:02;;;;;;;3.47;2.00;;;18.70;49.40;;;;;;5036583;28;20432;-79
2023/05/24 13:55:30;;;;;;;3.03;2.30;;;18.70;51.10;;;;;;5043020;28;20447;-78
2023/05/24 13:57:57;;;;;;;2.97;2.17;;;18.50;53.10;;;;;;5033851;28;20443;-78
2023/05/24 14:00:24;;;;;;;3.40;2.30;;;18.70;53.10;;;;;;5033951;28;20451;-78
2023/05/24 14:02:52;;;;;;;4.70;2.47;;;18.30;51.80;;;;;;5033471;28;21037;-78
2023/05/24 14:05:19;;;;;;;3.40;2.60;;;18.30;54.40;;;;;;5033379;28;20474;-79
2023/05/24 14:07:46;;;;;;;4.73;2.70;;;18.40;54.10;;;;;;5033349;28;20451;-78
2023/05/24 14:10:14;;;;;;;4.80;2.50;;;18.60;53.90;;;;;;5033407;28;20804;-79
2023/05/24 14:12:41;;;;;;;3.40;2.33;;;18.70;52.70;;;;;;5033515;28;20934;-79
2023/05/24 14:15:08;;;;;;;4.33;1.83;;;18.70;51.90;;;;;;5033525;28;20443;-78
2023/05/24 14:17:35;;;;;;;4.00;1.80;;;18.50;51.90;;;;;;5033268;28;20475;-78
2023/05/24 14:20:02;;;;;;;3.47;2.07;;;18.70;51.70;;;;;;5033547;28;20497;-79
2023/05/24 14:22:28;;;;;;;3.27;1.80;;;18.90;49.40;;;;;;5034681;28;20609;-79
2023/05/24 14:24:55;;;;;;;3.97;2.50;;;18.70;50.20;;;;;;5033544;28;20447;-79
2023/05/24 14:27:24;;;;;;;4.50;1.87;;;18.60;50.30;;;;;;5033277;28;20502;-79
2023/05/24 14:29:51;;;;;;;3.53;2.10;;;19.20;52.20;;;;;;5033315;28;20875;-79
2023/05/24 14:32:18;;;;;;;3.03;1.90;;;19.50;51.10;;;;;;5033534;28;20457;-79
2023/05/24 14:34:45;;;;;;;3.00;1.83;;;19.90;52.50;;;;;;5033689;28;20452;-79
2023/05/24 14:37:12;;;;;;;3.77;2.10;;;20.00;51.30;;;;;;5034179;28;20586;-79
2023/05/24 14:39:38;;;;;;;3.27;1.90;;;20.10;50.30;;;;;;5036899;28;20497;-79
2023/05/24 14:42:05;;;;;;;3.50;2.07;;;20.10;49.60;;;;;;5037094;28;20482;-78
2023/05/24 14:44:33;;;;;;;4.27;2.53;;;19.80;49.30;;;;;;5037271;28;20558;-79
2023/05/24 14:50:03;;;;;;;3.90;2.03;;;19.30;50.20;;;;;;5038393;28;20636;-79
2023/05/24 14:52:31;;;;;;;3.07;2.00;;;19.00;51.60;;;;;;5040727;28;20443;-80
2023/05/24 14:54:58;;;;;;;3.03;1.60;;;18.80;51.50;;;;;;5039035;28;20451;-79
2023/05/24 14:57:24;;;;;;;3.13;2.10;;;18.60;50.90;;;;;;5040543;28;20490;-79
2023/05/24 14:59:52;;;;;;;4.67;2.13;;;18.30;50.60;;;;;;5039189;28;20443;-79
2023/05/24 15:02:19;;;;;;;4.50;1.80;;;18.30;51.40;;;;;;5037001;28;20525;-78
2023/05/24 15:04:46;;;;;;;3.77;1.90;;;18.00;50.90;;;;;;5037609;28;20451;-77
2023/05/24 15:07:12;;;;;;;5.60;2.40;;;18.10;51.10;;;;;;5037418;28;20475;-78
2023/05/24 15:09:39;;;;;;;3.07;1.57;;;18.20;51.60;;;;;;5036765;28;20457;-78
2023/05/24 15:12:07;;;;;;;3.30;1.97;;;18.40;52.10;;;;;;5036907;28;20474;-78
2023/05/24 15:14:34;;;;;;;2.90;1.60;;;18.60;51.80;;;;;;5037449;28;20439;-79
2023/05/24 15:17:02;;;;;;;2.97;1.73;;;19.00;50.70;;;;;;5036391;28;20642;-77
2023/05/24 15:19:28;;;;;;;3.47;1.80;;;19.40;50.30;;;;;;5036652;28;20538;-78
2023/05/24 15:21:55;;;;;;;3.17;1.87;;;19.80;49.40;;;;;;5036229;28;20521;-78
2023/05/24 15:24:22;;;;;;;4.00;1.90;;;19.70;48.00;;;;;;5036724;28;20955;-79
2023/05/24 15:26:48;;;;;;;3.30;1.80;;;19.80;48.20;;;;;;5038846;28;20522;-79
2023/05/24 15:29:16;;;;;;;3.70;1.70;;;19.40;48.20;;;;;;5039813;28;20470;-79
2023/05/24 15:31:42;;;;;;;2.70;1.57;;;19.50;47.90;;;;;;5039438;28;20447;-79
2023/05/24 15:34:11;;;;;;;2.50;1.50;;;19.50;49.00;;;;;;5040528;28;20463;-79
2023/05/24 15:36:37;;;;;;;3.60;2.10;;;19.70;48.80;;;;;;5039663;28;20475;-80
2023/05/24 15:39:05;;;;;;;2.80;1.90;;;20.00;50.30;;;;;;5040142;28;20509;-79
2023/05/24 15:41:32;;;;;;;4.33;2.40;;;20.30;48.00;;;;;;5041096;28;20447;-80
2023/05/24 15:43:59;;;;;;;2.50;1.50;;;20.60;48.30;;;;;;5040117;28;20804;-80
2023/05/24 15:46:26;;;;;;;3.23;2.20;;;20.80;47.90;;;;;;5040181;28;20467;-80
2023/05/24 15:48:53;;;;;;;2.47;1.63;;;20.80;47.10;;;;;;5038763;28;20452;-79
2023/05/24 15:51:21;;;;;;;4.57;2.00;;;20.70;47.50;;;;;;5039422;28;20455;-79
2023/05/24 15:53:48;;;;;;;3.00;1.70;;;20.50;47.30;;;;;;5036484;28;20547;-79
2023/05/24 15:56:15;;;;;;;2.67;1.40;;;20.20;48.70;;;;;;5036847;28;20475;-79
2023/05/24 15:58:42;;;;;;;2.60;1.33;;;20.10;48.60;;;;;;5038593;28;20550;-79
2023/05/24 16:01:09;;;;;;;2.20;1.47;;;19.50;47.70;;;;;;5042278;28;20459;-79
2023/05/24 16:03:36;;;;;;;2.53;1.93;;;19.30;48.60;;;;;;5040494;28;20549;-80
2023/05/24 16:06:03;;;;;;;2.60;1.80;;;19.50;49.50;;;;;;5039076;28;20471;-78
2023/05/24 16:08:31;;;;;;;2.63;1.60;;;19.40;48.80;;;;;;5036213;28;20501;-79
2023/05/24 16:10:59;;;;;;;2.57;1.70;;;18.90;49.30;;;;;;5035661;28;20940;-78
2023/05/24 16:13:26;;;;;;;2.93;1.47;;;18.50;50.10;;;;;;5035378;28;20869;-78
2023/05/24 16:15:52;;;;;;;4.23;1.90;;;18.50;50.50;;;;;;5035689;28;20518;-78
2023/05/24 16:18:21;;;;;;;2.43;1.33;;;18.50;50.40;;;;;;5036489;28;20452;-78
2023/05/24 16:20:48;;;;;;;4.30;2.10;;;18.50;50.50;;;;;;5035593;28;20810;-78
2023/05/24 16:23:15;;;;;;;2.10;1.60;;;18.70;50.70;;;;;;5035428;28;20479;-78
2023/05/24 16:25:44;;;;;;;2.80;1.60;;;18.50;50.90;;;;;;5035587;28;20522;-78
2023/05/24 16:28:11;;;;;;;3.20;1.50;;;18.80;51.80;;;;;;5035514;28;20459;-78
2023/05/24 16:30:38;;;;;;;2.93;2.07;;;19.10;51.40;;;;;;5035392;28;20502;-79
2023/05/24 16:33:05;;;;;;;4.63;1.80;;;19.00;50.40;;;;;;5035310;28;20506;-78
2023/05/24 16:35:31;;;;;;;3.30;1.90;;;19.20;51.30;;;;;;5035280;28;20554;-76
2023/05/24 16:37:58;;;;;;;3.63;1.73;;;19.20;50.80;;;;;;5034726;28;21003;-77
2023/05/24 16:40:25;;;;;;;3.10;2.00;;;19.10;50.30;;;;;;5034694;28;20944;-77
2023/05/24 16:42:54;;;;;;;2.63;1.80;;;19.20;50.20;;;;;;5034892;28;20525;-78
2023/05/24 16:45:20;;;;;;;3.53;1.70;;;19.20;50.50;;;;;;5035024;28;20447;-78
2023/05/24 16:47:47;;;;;;;3.07;1.70;;;18.70;51.10;;;;;;5034728;28;20866;-78
2023/05/24 16:50:14;;;;;;;2.70;1.50;;;18.50;51.70;;;;;;5041996;28;20547;-78
2023/05/24 16:52:41;;;;;;;2.67;1.63;;;18.40;52.20;;;;;;5040817;28;20471;-78
2023/05/24 16:55:08;;;;;;;3.03;1.70;;;18.30;51.80;;;;;;5040144;28;20447;-78
2023/05/24 16:57:35;;;;;;;2.60;1.60;;;18.40;52.70;;;;;;5040752;28;20467;-78